Cliff, Kentucky
Current Conditions -  °F | °C
As of 12:35 PM on Saturday 25 Oct 2014 (Local Time) from KSJS Reporting Station
Overcast Overcast  
Wind Chill: 60°   Ceiling: 6000
Heat Index: 60°   Visibility: 10mi
Dew Point: 47°   Wind: 5mph
Humidity: 63%   Direction: 210°SSW
Pressure: 30.05"   Gusts: NA
Location:  37.6405°N, 82.8256°W
Report Text: KSJS 251635Z AUTO 21004KT 10SM BKN060 BKN075 OVC080 16/09 A3005 RMK AO2 T01570086
Loading
Personal Weather Stations






























Interactive Weather Map
Tropical Storm Tracking
New forecast layout! Learn more

10-Day Weather Forecast

Advertisements
Track Severe Weather on mobile